sensor_id;sensor_type;location;lat;lon;timestamp;temperature;humidity
32612;DHT22;19030;49.478;8.986;2023-09-07T00:00:07;15.10;99.90
32612;DHT22;19030;49.478;8.986;2023-09-07T00:02:12;15.10;99.90
32612;DHT22;19030;49.478;8.986;2023-09-07T00:04:13;15.00;99.90
32612;DHT22;19030;49.478;8.986;2023-09-07T00:06:14;15.00;99.90
32612;DHT22;19030;49.478;8.986;2023-09-07T00:08:14;15.00;99.90
32612;DHT22;19030;49.478;8.986;2023-09-07T00:10:15;15.00;99.90
32612;DHT22;19030;49.478;8.986;2023-09-07T00:12:17;14.90;99.90
32612;DHT22;19030;49.478;8.986;2023-09-07T00:14:18;15.00;99.90
32612;DHT22;19030;49.478;8.986;2023-09-07T00:16:18;15.00;99.90
32612;DHT22;19030;49.478;8.986;2023-09-07T00:18:19;15.00;99.90
32612;DHT22;19030;49.478;8.986;2023-09-07T00:20:20;15.00;99.90
32612;DHT22;19030;49.478;8.986;2023-09-07T00:25:43;14.90;99.90
32612;DHT22;19030;49.478;8.986;2023-09-07T00:27:44;14.90;99.90
32612;DHT22;19030;49.478;8.986;2023-09-07T00:29:44;14.80;99.90
32612;DHT22;19030;49.478;8.986;2023-09-07T00:31:45;14.80;99.90
32612;DHT22;19030;49.478;8.986;2023-09-07T00:33:46;14.80;99.90
32612;DHT22;19030;49.478;8.986;2023-09-07T00:35:46;14.80;99.90
32612;DHT22;19030;49.478;8.986;2023-09-07T00:37:47;14.70;99.90
32612;DHT22;19030;49.478;8.986;2023-09-07T00:39:47;14.70;99.90
32612;DHT22;19030;49.478;8.986;2023-09-07T00:41:48;14.70;99.90
32612;DHT22;19030;49.478;8.986;2023-09-07T00:43:49;14.60;99.90
32612;DHT22;19030;49.478;8.986;2023-09-07T00:45:51;14.60;99.90
32612;DHT22;19030;49.478;8.986;2023-09-07T00:47:51;14.60;99.90
32612;DHT22;19030;49.478;8.986;2023-09-07T00:49:52;14.60;99.90
32612;DHT22;19030;49.478;8.986;2023-09-07T00:51:54;14.60;99.90
32612;DHT22;19030;49.478;8.986;2023-09-07T00:53:55;14.60;99.90
32612;DHT22;19030;49.478;8.986;2023-09-07T00:55:56;14.60;99.90
32612;DHT22;19030;49.478;8.986;2023-09-07T00:57:58;14.50;99.90
32612;DHT22;19030;49.478;8.986;2023-09-07T00:59:58;14.50;99.90
32612;DHT22;19030;49.478;8.986;2023-09-07T01:01:59;14.50;99.90
32612;DHT22;19030;49.478;8.986;2023-09-07T01:03:59;14.50;99.90
32612;DHT22;19030;49.478;8.986;2023-09-07T01:06:15;14.50;99.90
32612;DHT22;19030;49.478;8.986;2023-09-07T01:08:24;14.50;99.90
32612;DHT22;19030;49.478;8.986;2023-09-07T01:10:25;14.50;99.90
32612;DHT22;19030;49.478;8.986;2023-09-07T01:12:26;14.50;99.90
32612;DHT22;19030;49.478;8.986;2023-09-07T01:14:27;14.40;99.90
32612;DHT22;19030;49.478;8.986;2023-09-07T01:16:28;14.40;99.90
32612;DHT22;19030;49.478;8.986;2023-09-07T01:18:29;14.40;99.90
32612;DHT22;19030;49.478;8.986;2023-09-07T01:20:32;14.30;99.90
32612;DHT22;19030;49.478;8.986;2023-09-07T01:22:34;14.40;99.90
32612;DHT22;19030;49.478;8.986;2023-09-07T01:24:34;14.30;99.90
32612;DHT22;19030;49.478;8.986;2023-09-07T01:26:37;14.30;99.90
32612;DHT22;19030;49.478;8.986;2023-09-07T01:28:42;14.30;99.90
32612;DHT22;19030;49.478;8.986;2023-09-07T01:30:42;14.30;99.90
32612;DHT22;19030;49.478;8.986;2023-09-07T01:32:43;14.30;99.90
32612;DHT22;19030;49.478;8.986;2023-09-07T01:34:45;14.30;99.90
32612;DHT22;19030;49.478;8.986;2023-09-07T01:36:45;14.20;99.90
32612;DHT22;19030;49.478;8.986;2023-09-07T01:38:46;14.30;99.90
32612;DHT22;19030;49.478;8.986;2023-09-07T01:40:46;14.20;99.90
32612;DHT22;19030;49.478;8.986;2023-09-07T01:42:47;14.20;99.90
32612;DHT22;19030;49.478;8.986;2023-09-07T01:44:48;14.20;99.90
32612;DHT22;19030;49.478;8.986;2023-09-07T01:46:48;14.20;99.90
32612;DHT22;19030;49.478;8.986;2023-09-07T01:48:49;14.20;99.90
32612;DHT22;19030;49.478;8.986;2023-09-07T01:50:53;14.20;99.90
32612;DHT22;19030;49.478;8.986;2023-09-07T01:52:54;14.20;99.90
32612;DHT22;19030;49.478;8.986;2023-09-07T01:54:55;14.20;99.90
32612;DHT22;19030;49.478;8.986;2023-09-07T01:56:56;14.10;99.90
32612;DHT22;19030;49.478;8.986;2023-09-07T01:58:56;14.10;99.90
32612;DHT22;19030;49.478;8.986;2023-09-07T02:00:58;14.10;99.90
32612;DHT22;19030;49.478;8.986;2023-09-07T02:02:59;14.10;99.90
32612;DHT22;19030;49.478;8.986;2023-09-07T02:04:59;14.10;99.90
32612;DHT22;19030;49.478;8.986;2023-09-07T02:07:00;14.10;99.90
32612;DHT22;19030;49.478;8.986;2023-09-07T02:09:00;14.10;99.90
32612;DHT22;19030;49.478;8.986;2023-09-07T02:11:01;14.10;99.90
32612;DHT22;19030;49.478;8.986;2023-09-07T02:13:03;14.10;99.90
32612;DHT22;19030;49.478;8.986;2023-09-07T02:15:05;14.10;99.90
32612;DHT22;19030;49.478;8.986;2023-09-07T02:17:05;14.10;99.90
32612;DHT22;19030;49.478;8.986;2023-09-07T02:19:06;14.00;99.90
32612;DHT22;19030;49.478;8.986;2023-09-07T02:21:07;14.00;99.90
32612;DHT22;19030;49.478;8.986;2023-09-07T02:23:07;14.10;99.90
32612;DHT22;19030;49.478;8.986;2023-09-07T02:25:08;14.10;99.90
32612;DHT22;19030;49.478;8.986;2023-09-07T02:27:09;14.00;99.90
32612;DHT22;19030;49.478;8.986;2023-09-07T02:29:10;14.00;99.90
32612;DHT22;19030;49.478;8.986;2023-09-07T02:31:11;14.00;99.90
32612;DHT22;19030;49.478;8.986;2023-09-07T02:33:11;14.00;99.90
32612;DHT22;19030;49.478;8.986;2023-09-07T02:35:12;14.00;99.90
32612;DHT22;19030;49.478;8.986;2023-09-07T02:37:14;14.00;99.90
32612;DHT22;19030;49.478;8.986;2023-09-07T02:39:16;14.00;99.90
32612;DHT22;19030;49.478;8.986;2023-09-07T02:41:17;14.00;99.90
32612;DHT22;19030;49.478;8.986;2023-09-07T02:43:18;14.00;99.90
32612;DHT22;19030;49.478;8.986;2023-09-07T02:45:19;14.00;99.90
32612;DHT22;19030;49.478;8.986;2023-09-07T02:47:19;14.00;99.90
32612;DHT22;19030;49.478;8.986;2023-09-07T02:49:20;14.00;99.90
32612;DHT22;19030;49.478;8.986;2023-09-07T02:51:21;14.00;99.90
32612;DHT22;19030;49.478;8.986;2023-09-07T02:53:21;13.90;99.90
32612;DHT22;19030;49.478;8.986;2023-09-07T02:55:22;13.90;99.90
32612;DHT22;19030;49.478;8.986;2023-09-07T02:57:22;13.90;99.90
32612;DHT22;19030;49.478;8.986;2023-09-07T02:59:23;13.90;99.90
32612;DHT22;19030;49.478;8.986;2023-09-07T03:01:24;13.90;99.90
32612;DHT22;19030;49.478;8.986;2023-09-07T03:03:24;13.90;99.90
32612;DHT22;19030;49.478;8.986;2023-09-07T03:05:29;13.90;99.90
32612;DHT22;19030;49.478;8.986;2023-09-07T03:07:33;13.80;99.90
32612;DHT22;19030;49.478;8.986;2023-09-07T03:09:34;13.90;99.90
32612;DHT22;19030;49.478;8.986;2023-09-07T03:11:35;13.80;99.90
32612;DHT22;19030;49.478;8.986;2023-09-07T03:13:36;13.80;99.90
32612;DHT22;19030;49.478;8.986;2023-09-07T03:15:36;13.80;99.90
32612;DHT22;19030;49.478;8.986;2023-09-07T03:17:41;13.70;99.90
32612;DHT22;19030;49.478;8.986;2023-09-07T03:19:42;13.70;99.90
32612;DHT22;19030;49.478;8.986;2023-09-07T03:21:43;13.70;99.90
32612;DHT22;19030;49.478;8.986;2023-09-07T03:23:44;13.70;99.90
32612;DHT22;19030;49.478;8.986;2023-09-07T03:25:46;13.60;99.90
32612;DHT22;19030;49.478;8.986;2023-09-07T03:27:47;13.60;99.90
32612;DHT22;19030;49.478;8.986;2023-09-07T03:29:50;13.60;99.90
32612;DHT22;19030;49.478;8.986;2023-09-07T03:31:52;13.70;99.90
32612;DHT22;19030;49.478;8.986;2023-09-07T03:33:53;13.60;99.90
32612;DHT22;19030;49.478;8.986;2023-09-07T03:35:53;13.70;99.90
32612;DHT22;19030;49.478;8.986;2023-09-07T03:37:59;13.60;99.90
32612;DHT22;19030;49.478;8.986;2023-09-07T03:40:00;13.70;99.90
32612;DHT22;19030;49.478;8.986;2023-09-07T03:42:01;13.70;99.90
32612;DHT22;19030;49.478;8.986;2023-09-07T03:44:02;13.60;99.90
32612;DHT22;19030;49.478;8.986;2023-09-07T03:46:03;13.60;99.90
32612;DHT22;19030;49.478;8.986;2023-09-07T03:48:04;13.60;99.90
32612;DHT22;19030;49.478;8.986;2023-09-07T03:50:05;13.60;99.90
32612;DHT22;19030;49.478;8.986;2023-09-07T03:52:07;13.60;99.90
32612;DHT22;19030;49.478;8.986;2023-09-07T03:54:08;13.60;99.90
32612;DHT22;19030;49.478;8.986;2023-09-07T03:56:08;13.60;99.90
32612;DHT22;19030;49.478;8.986;2023-09-07T03:58:10;13.60;99.90
32612;DHT22;19030;49.478;8.986;2023-09-07T04:00:11;13.60;99.90
32612;DHT22;19030;49.478;8.986;2023-09-07T04:02:18;13.60;99.90
32612;DHT22;19030;49.478;8.986;2023-09-07T04:04:19;13.60;99.90
32612;DHT22;19030;49.478;8.986;2023-09-07T04:06:19;13.50;99.90
32612;DHT22;19030;49.478;8.986;2023-09-07T04:08:20;13.50;99.90
32612;DHT22;19030;49.478;8.986;2023-09-07T04:10:20;13.50;99.90
32612;DHT22;19030;49.478;8.986;2023-09-07T04:12:21;13.50;99.90
32612;DHT22;19030;49.478;8.986;2023-09-07T04:14:21;13.40;99.90
32612;DHT22;19030;49.478;8.986;2023-09-07T04:16:22;13.50;99.90
32612;DHT22;19030;49.478;8.986;2023-09-07T04:18:23;13.50;99.90
32612;DHT22;19030;49.478;8.986;2023-09-07T04:20:25;13.40;99.90
32612;DHT22;19030;49.478;8.986;2023-09-07T04:22:26;13.40;99.90
32612;DHT22;19030;49.478;8.986;2023-09-07T04:24:27;13.40;99.90
32612;DHT22;19030;49.478;8.986;2023-09-07T04:26:31;13.40;99.90
32612;DHT22;19030;49.478;8.986;2023-09-07T04:28:31;13.40;99.90
32612;DHT22;19030;49.478;8.986;2023-09-07T04:30:39;13.40;99.90
32612;DHT22;19030;49.478;8.986;2023-09-07T04:32:40;13.40;99.90
32612;DHT22;19030;49.478;8.986;2023-09-07T04:34:41;13.40;99.90
32612;DHT22;19030;49.478;8.986;2023-09-07T04:36:42;13.40;99.90
32612;DHT22;19030;49.478;8.986;2023-09-07T04:38:42;13.40;99.90
32612;DHT22;19030;49.478;8.986;2023-09-07T04:40:43;13.40;99.90
32612;DHT22;19030;49.478;8.986;2023-09-07T04:42:44;13.40;99.90
32612;DHT22;19030;49.478;8.986;2023-09-07T04:44:46;13.40;99.90
32612;DHT22;19030;49.478;8.986;2023-09-07T04:46:46;13.40;99.90
32612;DHT22;19030;49.478;8.986;2023-09-07T04:48:47;13.40;99.90
32612;DHT22;19030;49.478;8.986;2023-09-07T04:50:47;13.30;99.90
32612;DHT22;19030;49.478;8.986;2023-09-07T04:52:48;13.40;99.90
32612;DHT22;19030;49.478;8.986;2023-09-07T04:54:49;13.40;99.90
32612;DHT22;19030;49.478;8.986;2023-09-07T04:56:51;13.40;99.90
32612;DHT22;19030;49.478;8.986;2023-09-07T04:58:52;13.40;99.90
32612;DHT22;19030;49.478;8.986;2023-09-07T05:00:53;13.40;99.90
32612;DHT22;19030;49.478;8.986;2023-09-07T05:02:54;13.40;99.90
32612;DHT22;19030;49.478;8.986;2023-09-07T05:04:54;13.40;99.90
32612;DHT22;19030;49.478;8.986;2023-09-07T05:06:56;13.40;99.90
32612;DHT22;19030;49.478;8.986;2023-09-07T05:08:56;13.40;99.90
32612;DHT22;19030;49.478;8.986;2023-09-07T05:11:01;13.40;99.90
32612;DHT22;19030;49.478;8.986;2023-09-07T05:13:03;13.50;99.90
32612;DHT22;19030;49.478;8.986;2023-09-07T05:15:05;13.50;99.90
32612;DHT22;19030;49.478;8.986;2023-09-07T05:17:07;13.50;99.90
32612;DHT22;19030;49.478;8.986;2023-09-07T05:19:08;13.50;99.90
32612;DHT22;19030;49.478;8.986;2023-09-07T05:21:15;13.50;99.90
32612;DHT22;19030;49.478;8.986;2023-09-07T05:23:16;13.60;99.90
32612;DHT22;19030;49.478;8.986;2023-09-07T05:25:18;13.60;99.90
32612;DHT22;19030;49.478;8.986;2023-09-07T05:27:20;13.60;99.90
32612;DHT22;19030;49.478;8.986;2023-09-07T05:29:21;13.70;99.90
32612;DHT22;19030;49.478;8.986;2023-09-07T05:31:23;13.70;99.90
32612;DHT22;19030;49.478;8.986;2023-09-07T05:33:23;13.80;99.90
32612;DHT22;19030;49.478;8.986;2023-09-07T05:35:24;13.90;99.90
32612;DHT22;19030;49.478;8.986;2023-09-07T05:37:28;14.00;99.90
32612;DHT22;19030;49.478;8.986;2023-09-07T05:39:28;14.00;99.90
32612;DHT22;19030;49.478;8.986;2023-09-07T05:41:29;14.10;99.90
32612;DHT22;19030;49.478;8.986;2023-09-07T05:43:30;14.20;99.90
32612;DHT22;19030;49.478;8.986;2023-09-07T05:45:35;14.30;99.90
32612;DHT22;19030;49.478;8.986;2023-09-07T05:47:36;14.30;99.90
32612;DHT22;19030;49.478;8.986;2023-09-07T05:49:37;14.40;99.90
32612;DHT22;19030;49.478;8.986;2023-09-07T05:51:38;14.40;99.90
32612;DHT22;19030;49.478;8.986;2023-09-07T05:53:39;14.50;99.90
32612;DHT22;19030;49.478;8.986;2023-09-07T05:55:40;14.60;99.90
32612;DHT22;19030;49.478;8.986;2023-09-07T05:57:40;14.70;99.90
32612;DHT22;19030;49.478;8.986;2023-09-07T05:59:41;14.80;99.90
32612;DHT22;19030;49.478;8.986;2023-09-07T06:01:41;14.90;99.90
32612;DHT22;19030;49.478;8.986;2023-09-07T06:03:42;15.20;99.90
32612;DHT22;19030;49.478;8.986;2023-09-07T06:05:43;16.10;99.90
32612;DHT22;19030;49.478;8.986;2023-09-07T06:07:45;17.20;99.90
32612;DHT22;19030;49.478;8.986;2023-09-07T06:09:47;18.50;99.90
32612;DHT22;19030;49.478;8.986;2023-09-07T06:11:47;19.80;99.90
32612;DHT22;19030;49.478;8.986;2023-09-07T06:13:48;20.80;99.90
32612;DHT22;19030;49.478;8.986;2023-09-07T06:15:49;21.70;99.90
32612;DHT22;19030;49.478;8.986;2023-09-07T06:17:50;22.50;99.90
32612;DHT22;19030;49.478;8.986;2023-09-07T06:19:51;23.20;99.90
32612;DHT22;19030;49.478;8.986;2023-09-07T06:21:52;23.90;99.90
32612;DHT22;19030;49.478;8.986;2023-09-07T06:23:53;24.40;99.90
32612;DHT22;19030;49.478;8.986;2023-09-07T06:25:54;24.80;98.50
32612;DHT22;19030;49.478;8.986;2023-09-07T06:27:54;25.20;97.30
32612;DHT22;19030;49.478;8.986;2023-09-07T06:29:55;25.40;94.90
32612;DHT22;19030;49.478;8.986;2023-09-07T06:31:56;25.70;92.90
32612;DHT22;19030;49.478;8.986;2023-09-07T06:33:57;26.00;91.80
32612;DHT22;19030;49.478;8.986;2023-09-07T06:36:00;26.30;90.10
32612;DHT22;19030;49.478;8.986;2023-09-07T06:38:02;26.50;89.90
32612;DHT22;19030;49.478;8.986;2023-09-07T06:40:03;26.70;88.10
32612;DHT22;19030;49.478;8.986;2023-09-07T06:42:04;26.90;85.80
32612;DHT22;19030;49.478;8.986;2023-09-07T06:44:12;27.00;83.70
32612;DHT22;19030;49.478;8.986;2023-09-07T06:46:13;27.10;81.40
32612;DHT22;19030;49.478;8.986;2023-09-07T06:48:14;27.10;80.40
32612;DHT22;19030;49.478;8.986;2023-09-07T06:50:15;27.00;80.70
32612;DHT22;19030;49.478;8.986;2023-09-07T06:52:15;27.00;78.50
32612;DHT22;19030;49.478;8.986;2023-09-07T06:54:16;26.60;80.30
32612;DHT22;19030;49.478;8.986;2023-09-07T06:56:17;26.30;81.20
32612;DHT22;19030;49.478;8.986;2023-09-07T06:58:18;26.30;80.30
32612;DHT22;19030;49.478;8.986;2023-09-07T07:00:18;26.30;80.70
32612;DHT22;19030;49.478;8.986;2023-09-07T07:02:19;26.40;81.60
32612;DHT22;19030;49.478;8.986;2023-09-07T07:04:20;26.30;82.10
32612;DHT22;19030;49.478;8.986;2023-09-07T07:06:20;26.40;80.20
32612;DHT22;19030;49.478;8.986;2023-09-07T07:08:22;26.50;80.20
32612;DHT22;19030;49.478;8.986;2023-09-07T07:10:23;26.50;80.00
32612;DHT22;19030;49.478;8.986;2023-09-07T07:12:24;26.20;80.30
32612;DHT22;19030;49.478;8.986;2023-09-07T07:14:25;25.90;82.40
32612;DHT22;19030;49.478;8.986;2023-09-07T07:16:25;25.70;83.40
32612;DHT22;19030;49.478;8.986;2023-09-07T07:18:26;25.60;84.00
32612;DHT22;19030;49.478;8.986;2023-09-07T07:20:27;25.50;84.50
32612;DHT22;19030;49.478;8.986;2023-09-07T07:22:27;25.40;86.50
32612;DHT22;19030;49.478;8.986;2023-09-07T07:24:29;25.40;85.80
32612;DHT22;19030;49.478;8.986;2023-09-07T07:26:29;25.30;85.80
32612;DHT22;19030;49.478;8.986;2023-09-07T07:28:30;25.40;86.70
32612;DHT22;19030;49.478;8.986;2023-09-07T07:30:35;25.50;85.40
32612;DHT22;19030;49.478;8.986;2023-09-07T07:32:36;25.60;88.00
32612;DHT22;19030;49.478;8.986;2023-09-07T07:34:37;25.90;87.80
32612;DHT22;19030;49.478;8.986;2023-09-07T07:36:38;26.00;85.50
32612;DHT22;19030;49.478;8.986;2023-09-07T07:38:39;26.20;85.30
32612;DHT22;19030;49.478;8.986;2023-09-07T07:40:41;26.40;85.30
32612;DHT22;19030;49.478;8.986;2023-09-07T07:42:46;26.50;87.20
32612;DHT22;19030;49.478;8.986;2023-09-07T07:44:48;26.60;84.30
32612;DHT22;19030;49.478;8.986;2023-09-07T07:46:48;26.60;83.50
32612;DHT22;19030;49.478;8.986;2023-09-07T07:48:50;26.60;85.40
32612;DHT22;19030;49.478;8.986;2023-09-07T07:50:50;26.70;88.70
32612;DHT22;19030;49.478;8.986;2023-09-07T07:52:52;26.80;86.90
32612;DHT22;19030;49.478;8.986;2023-09-07T07:54:53;26.80;84.80
32612;DHT22;19030;49.478;8.986;2023-09-07T07:56:54;27.00;87.00
32612;DHT22;19030;49.478;8.986;2023-09-07T07:58:55;27.10;85.10
32612;DHT22;19030;49.478;8.986;2023-09-07T08:00:55;27.10;85.30
32612;DHT22;19030;49.478;8.986;2023-09-07T08:03:02;27.20;84.10
32612;DHT22;19030;49.478;8.986;2023-09-07T08:05:04;27.30;85.20
32612;DHT22;19030;49.478;8.986;2023-09-07T08:07:05;27.50;79.80
32612;DHT22;19030;49.478;8.986;2023-09-07T08:09:08;27.70;82.30
32612;DHT22;19030;49.478;8.986;2023-09-07T08:11:09;28.10;82.10
32612;DHT22;19030;49.478;8.986;2023-09-07T08:13:12;28.30;78.50
32612;DHT22;19030;49.478;8.986;2023-09-07T08:15:14;28.50;73.20
32612;DHT22;19030;49.478;8.986;2023-09-07T08:17:15;28.90;74.00
32612;DHT22;19030;49.478;8.986;2023-09-07T08:19:16;29.10;70.90
32612;DHT22;19030;49.478;8.986;2023-09-07T08:21:16;29.10;68.60
32612;DHT22;19030;49.478;8.986;2023-09-07T08:23:19;29.20;71.70
32612;DHT22;19030;49.478;8.986;2023-09-07T08:25:19;29.40;70.90
32612;DHT22;19030;49.478;8.986;2023-09-07T08:27:21;29.50;65.90
32612;DHT22;19030;49.478;8.986;2023-09-07T08:29:27;29.60;65.90
32612;DHT22;19030;49.478;8.986;2023-09-07T08:31:27;29.80;64.80
32612;DHT22;19030;49.478;8.986;2023-09-07T08:33:28;30.30;63.80
32612;DHT22;19030;49.478;8.986;2023-09-07T08:35:29;30.60;67.00
32612;DHT22;19030;49.478;8.986;2023-09-07T08:37:30;31.10;62.30
32612;DHT22;19030;49.478;8.986;2023-09-07T08:39:31;31.50;58.10
32612;DHT22;19030;49.478;8.986;2023-09-07T08:41:36;32.00;56.50
32612;DHT22;19030;49.478;8.986;2023-09-07T08:43:45;32.90;55.90
32612;DHT22;19030;49.478;8.986;2023-09-07T08:45:54;34.20;52.60
32612;DHT22;19030;49.478;8.986;2023-09-07T08:47:59;35.80;48.90
32612;DHT22;19030;49.478;8.986;2023-09-07T08:50:01;37.00;46.40
32612;DHT22;19030;49.478;8.986;2023-09-07T08:52:02;38.00;44.30
32612;DHT22;19030;49.478;8.986;2023-09-07T08:54:04;38.80;42.50
32612;DHT22;19030;49.478;8.986;2023-09-07T08:56:06;39.40;40.00
32612;DHT22;19030;49.478;8.986;2023-09-07T08:58:10;39.70;38.20
32612;DHT22;19030;49.478;8.986;2023-09-07T09:00:11;39.50;37.80
32612;DHT22;19030;49.478;8.986;2023-09-07T09:02:16;39.70;37.90
32612;DHT22;19030;49.478;8.986;2023-09-07T09:04:17;39.70;37.60
32612;DHT22;19030;49.478;8.986;2023-09-07T09:06:20;39.70;37.10
32612;DHT22;19030;49.478;8.986;2023-09-07T09:08:20;40.40;36.90
32612;DHT22;19030;49.478;8.986;2023-09-07T09:10:24;41.10;35.20
32612;DHT22;19030;49.478;8.986;2023-09-07T09:12:25;41.60;34.40
32612;DHT22;19030;49.478;8.986;2023-09-07T09:14:25;42.00;33.50
32612;DHT22;19030;49.478;8.986;2023-09-07T09:16:26;42.30;33.00
32612;DHT22;19030;49.478;8.986;2023-09-07T09:18:26;42.50;33.40
32612;DHT22;19030;49.478;8.986;2023-09-07T09:20:27;43.10;32.30
32612;DHT22;19030;49.478;8.986;2023-09-07T09:22:28;43.50;30.80
32612;DHT22;19030;49.478;8.986;2023-09-07T09:24:32;43.30;30.70
32612;DHT22;19030;49.478;8.986;2023-09-07T09:26:33;43.50;31.10
32612;DHT22;19030;49.478;8.986;2023-09-07T09:28:36;43.90;30.10
32612;DHT22;19030;49.478;8.986;2023-09-07T09:30:37;43.80;30.10
32612;DHT22;19030;49.478;8.986;2023-09-07T09:32:39;43.80;30.50
32612;DHT22;19030;49.478;8.986;2023-09-07T09:34:39;44.20;29.60
32612;DHT22;19030;49.478;8.986;2023-09-07T09:36:42;44.40;29.70
32612;DHT22;19030;49.478;8.986;2023-09-07T09:38:50;44.60;29.20
32612;DHT22;19030;49.478;8.986;2023-09-07T09:40:53;44.40;29.20
32612;DHT22;19030;49.478;8.986;2023-09-07T09:42:55;44.40;29.30
32612;DHT22;19030;49.478;8.986;2023-09-07T09:44:56;44.80;28.80
32612;DHT22;19030;49.478;8.986;2023-09-07T09:46:59;45.30;28.80
32612;DHT22;19030;49.478;8.986;2023-09-07T09:49:00;45.60;28.70
32612;DHT22;19030;49.478;8.986;2023-09-07T09:51:01;46.10;28.00
32612;DHT22;19030;49.478;8.986;2023-09-07T09:53:05;46.20;27.70
32612;DHT22;19030;49.478;8.986;2023-09-07T09:55:07;45.70;27.60
32612;DHT22;19030;49.478;8.986;2023-09-07T09:57:08;45.00;27.90
32612;DHT22;19030;49.478;8.986;2023-09-07T09:59:09;44.60;28.10
32612;DHT22;19030;49.478;8.986;2023-09-07T10:01:10;44.60;28.20
32612;DHT22;19030;49.478;8.986;2023-09-07T10:03:19;44.30;28.30
32612;DHT22;19030;49.478;8.986;2023-09-07T10:05:23;44.10;28.80
32612;DHT22;19030;49.478;8.986;2023-09-07T10:07:41;44.00;28.80
32612;DHT22;19030;49.478;8.986;2023-09-07T10:09:43;44.00;28.60
32612;DHT22;19030;49.478;8.986;2023-09-07T10:11:50;44.30;28.50
32612;DHT22;19030;49.478;8.986;2023-09-07T10:13:57;44.40;28.40
32612;DHT22;19030;49.478;8.986;2023-09-07T10:16:05;44.90;28.10
32612;DHT22;19030;49.478;8.986;2023-09-07T10:20:10;44.80;27.80
32612;DHT22;19030;49.478;8.986;2023-09-07T10:22:21;44.70;27.30
32612;DHT22;19030;49.478;8.986;2023-09-07T10:24:32;43.90;28.20
32612;DHT22;19030;49.478;8.986;2023-09-07T10:26:37;43.70;28.10
32612;DHT22;19030;49.478;8.986;2023-09-07T10:28:37;43.70;28.20
32612;DHT22;19030;49.478;8.986;2023-09-07T10:30:38;44.30;28.00
32612;DHT22;19030;49.478;8.986;2023-09-07T10:32:39;44.50;26.90
32612;DHT22;19030;49.478;8.986;2023-09-07T10:34:41;44.40;26.90
32612;DHT22;19030;49.478;8.986;2023-09-07T10:36:45;44.40;26.90
32612;DHT22;19030;49.478;8.986;2023-09-07T10:38:46;44.40;27.80
32612;DHT22;19030;49.478;8.986;2023-09-07T10:40:47;44.20;27.50
32612;DHT22;19030;49.478;8.986;2023-09-07T10:42:48;42.70;29.50
32612;DHT22;19030;49.478;8.986;2023-09-07T10:44:49;41.40;30.50
32612;DHT22;19030;49.478;8.986;2023-09-07T10:46:49;40.20;31.10
32612;DHT22;19030;49.478;8.986;2023-09-07T10:48:51;39.30;32.70
32612;DHT22;19030;49.478;8.986;2023-09-07T10:50:52;38.30;34.20
32612;DHT22;19030;49.478;8.986;2023-09-07T10:52:53;37.50;33.80
32612;DHT22;19030;49.478;8.986;2023-09-07T10:54:57;36.80;33.50
32612;DHT22;19030;49.478;8.986;2023-09-07T10:57:10;36.50;35.20
32612;DHT22;19030;49.478;8.986;2023-09-07T10:59:13;36.60;35.70
32612;DHT22;19030;49.478;8.986;2023-09-07T11:01:13;36.40;35.00
32612;DHT22;19030;49.478;8.986;2023-09-07T11:03:14;36.20;35.50
32612;DHT22;19030;49.478;8.986;2023-09-07T11:05:15;36.00;35.30
32612;DHT22;19030;49.478;8.986;2023-09-07T11:07:15;36.00;35.70
32612;DHT22;19030;49.478;8.986;2023-09-07T11:09:19;35.90;37.40
32612;DHT22;19030;49.478;8.986;2023-09-07T11:11:20;35.90;37.30
32612;DHT22;19030;49.478;8.986;2023-09-07T11:13:24;35.50;37.40
32612;DHT22;19030;49.478;8.986;2023-09-07T11:15:24;35.40;38.60
32612;DHT22;19030;49.478;8.986;2023-09-07T11:17:28;35.50;38.10
32612;DHT22;19030;49.478;8.986;2023-09-07T11:19:32;35.70;39.30
32612;DHT22;19030;49.478;8.986;2023-09-07T11:21:36;36.10;40.20
32612;DHT22;19030;49.478;8.986;2023-09-07T11:23:37;36.40;37.40
32612;DHT22;19030;49.478;8.986;2023-09-07T11:25:41;36.40;37.50
32612;DHT22;19030;49.478;8.986;2023-09-07T11:27:42;36.50;37.70
32612;DHT22;19030;49.478;8.986;2023-09-07T11:29:52;36.20;37.00
32612;DHT22;19030;49.478;8.986;2023-09-07T11:31:53;35.80;37.20
32612;DHT22;19030;49.478;8.986;2023-09-07T11:33:53;35.50;38.30
32612;DHT22;19030;49.478;8.986;2023-09-07T11:35:55;35.40;37.50
32612;DHT22;19030;49.478;8.986;2023-09-07T11:37:55;35.60;38.10
32612;DHT22;19030;49.478;8.986;2023-09-07T11:39:56;35.60;38.00
32612;DHT22;19030;49.478;8.986;2023-09-07T11:41:56;35.40;37.60
32612;DHT22;19030;49.478;8.986;2023-09-07T11:43:58;35.30;38.30
32612;DHT22;19030;49.478;8.986;2023-09-07T11:45:58;35.30;38.90
32612;DHT22;19030;49.478;8.986;2023-09-07T11:47:59;35.10;39.70
32612;DHT22;19030;49.478;8.986;2023-09-07T11:50:00;35.00;38.10
32612;DHT22;19030;49.478;8.986;2023-09-07T11:52:00;35.10;39.40
32612;DHT22;19030;49.478;8.986;2023-09-07T11:54:04;35.00;40.00
32612;DHT22;19030;49.478;8.986;2023-09-07T11:56:05;35.10;40.60
32612;DHT22;19030;49.478;8.986;2023-09-07T11:58:05;35.20;39.60
32612;DHT22;19030;49.478;8.986;2023-09-07T12:00:06;34.90;40.40
32612;DHT22;19030;49.478;8.986;2023-09-07T12:02:12;34.70;39.80
32612;DHT22;19030;49.478;8.986;2023-09-07T12:04:15;34.80;40.10
32612;DHT22;19030;49.478;8.986;2023-09-07T12:06:16;35.00;40.80
32612;DHT22;19030;49.478;8.986;2023-09-07T12:08:17;34.90;40.80
32612;DHT22;19030;49.478;8.986;2023-09-07T12:10:17;34.80;40.70
32612;DHT22;19030;49.478;8.986;2023-09-07T12:12:18;34.90;40.00
32612;DHT22;19030;49.478;8.986;2023-09-07T12:14:18;34.70;39.50
32612;DHT22;19030;49.478;8.986;2023-09-07T12:16:19;34.60;40.70
32612;DHT22;19030;49.478;8.986;2023-09-07T12:18:21;34.90;39.70
32612;DHT22;19030;49.478;8.986;2023-09-07T12:20:22;34.90;39.90
32612;DHT22;19030;49.478;8.986;2023-09-07T12:22:22;34.80;40.30
32612;DHT22;19030;49.478;8.986;2023-09-07T12:24:23;34.90;39.80
32612;DHT22;19030;49.478;8.986;2023-09-07T12:26:23;34.90;39.70
32612;DHT22;19030;49.478;8.986;2023-09-07T12:28:24;34.80;39.90
32612;DHT22;19030;49.478;8.986;2023-09-07T12:30:24;34.90;41.10
32612;DHT22;19030;49.478;8.986;2023-09-07T12:32:25;35.10;38.90
32612;DHT22;19030;49.478;8.986;2023-09-07T12:34:25;35.20;40.80
32612;DHT22;19030;49.478;8.986;2023-09-07T12:36:26;35.60;38.60
32612;DHT22;19030;49.478;8.986;2023-09-07T12:38:30;35.80;38.10
32612;DHT22;19030;49.478;8.986;2023-09-07T12:40:30;35.90;38.80
32612;DHT22;19030;49.478;8.986;2023-09-07T12:42:31;36.00;38.30
32612;DHT22;19030;49.478;8.986;2023-09-07T12:44:31;36.00;37.70
32612;DHT22;19030;49.478;8.986;2023-09-07T12:46:33;35.80;37.10
32612;DHT22;19030;49.478;8.986;2023-09-07T12:48:33;35.60;37.90
32612;DHT22;19030;49.478;8.986;2023-09-07T12:50:34;35.60;37.50
32612;DHT22;19030;49.478;8.986;2023-09-07T12:52:35;35.60;38.30